Time,TemperatureF,DewpointF,PressureIn,WindDirection,WindDirectionDegrees,WindSpeedMPH,WindSpeedGustMPH,Humidity,HourlyPrecipIn,Conditions,Clouds,dailyrainin,SoftwareType,DateUTC
2013-09-13 00:02:00,79.0,72.0,29.94,SSE,149,0.0,4.0,79,0.00,,,0.00,weatherlink.com 1.10,2013-09-13 05:02:00,
2013-09-13 00:18:00,78.4,72.0,29.94,SSE,155,0.0,2.0,81,0.00,,,0.00,weatherlink.com 1.10,2013-09-13 05:18:00,
2013-09-13 00:33:00,77.9,72.0,29.93,SE,128,0.0,2.0,82,0.00,,,0.00,weatherlink.com 1.10,2013-09-13 05:33:00,
2013-09-13 00:48:00,77.5,72.0,29.93,SE,128,0.0,2.0,83,0.00,,,0.00,weatherlink.com 1.10,2013-09-13 05:48:00,
2013-09-13 01:03:00,77.2,72.0,29.93,SSE,152,0.0,2.0,84,0.00,,,0.00,weatherlink.com 1.10,2013-09-13 06:03:00,
2013-09-13 01:18:00,76.8,72.0,29.93,SSE,153,0.0,1.0,85,0.00,,,0.00,weatherlink.com 1.10,2013-09-13 06:18:00,
2013-09-13 01:33:00,76.1,72.0,29.93,SSE,153,0.0,0.0,86,0.00,,,0.00,weatherlink.com 1.10,2013-09-13 06:33:00,
2013-09-13 01:48:00,75.1,71.0,29.92,SSE,153,0.0,0.0,88,0.00,,,0.00,weatherlink.com 1.10,2013-09-13 06:48:00,
2013-09-13 02:03:00,74.9,72.0,29.93,SSE,153,0.0,1.0,89,0.00,,,0.00,weatherlink.com 1.10,2013-09-13 07:03:00,
2013-09-13 02:18:00,74.7,72.0,29.93,SSE,153,0.0,0.0,90,0.00,,,0.00,weatherlink.com 1.10,2013-09-13 07:18:00,
2013-09-13 02:33:00,74.2,71.0,29.92,SSE,153,0.0,0.0,90,0.00,,,0.00,weatherlink.com 1.10,2013-09-13 07:33:00,
2013-09-13 02:48:00,74.2,72.0,29.92,SSE,153,0.0,0.0,91,0.00,,,0.00,weatherlink.com 1.10,2013-09-13 07:48:00,
2013-09-13 03:03:00,73.7,71.0,29.91,SSE,153,0.0,0.0,91,0.00,,,0.00,weatherlink.com 1.10,2013-09-13 08:03:00,
2013-09-13 03:18:00,73.4,71.0,29.91,SSE,153,0.0,1.0,92,0.00,,,0.00,weatherlink.com 1.10,2013-09-13 08:18:00,
2013-09-13 03:33:00,73.5,71.0,29.91,SW,226,0.0,1.0,92,0.00,,,0.00,weatherlink.com 1.10,2013-09-13 08:33:00,
2013-09-13 03:48:00,73.7,71.0,29.91,WNW,284,0.0,1.0,92,0.00,,,0.00,weatherlink.com 1.10,2013-09-13 08:48:00,
2013-09-13 04:03:00,73.5,71.0,29.91,WNW,284,0.0,1.0,92,0.00,,,0.00,weatherlink.com 1.10,2013-09-13 09:03:00,
2013-09-13 04:18:00,73.0,71.0,29.91,WNW,284,0.0,0.0,92,0.00,,,0.00,weatherlink.com 1.10,2013-09-13 09:18:00,
2013-09-13 04:33:00,72.2,70.0,29.91,WNW,284,0.0,0.0,93,0.00,,,0.00,weatherlink.com 1.10,2013-09-13 09:33:00,
2013-09-13 04:48:00,71.8,70.0,29.90,WNW,284,0.0,0.0,93,0.00,,,0.00,weatherlink.com 1.10,2013-09-13 09:48:00,
2013-09-13 05:03:00,71.6,70.0,29.90,WNW,284,0.0,0.0,94,0.00,,,0.00,weatherlink.com 1.10,2013-09-13 10:03:00,
2013-09-13 05:18:00,71.7,70.0,29.90,WNW,284,0.0,0.0,94,0.00,,,0.00,weatherlink.com 1.10,2013-09-13 10:18:00,
2013-09-13 05:33:00,71.7,70.0,29.91,WNW,284,0.0,0.0,94,0.00,,,0.00,weatherlink.com 1.10,2013-09-13 10:33:00,
2013-09-13 05:48:00,71.4,70.0,29.91,WNW,284,0.0,0.0,94,0.00,,,0.00,weatherlink.com 1.10,2013-09-13 10:48:00,
2013-09-13 06:03:00,71.2,70.0,29.91,WNW,284,0.0,0.0,95,0.00,,,0.00,weatherlink.com 1.10,2013-09-13 11:03:00,
2013-09-13 06:18:00,70.8,69.0,29.91,WNW,284,0.0,0.0,95,0.00,,,0.00,weatherlink.com 1.10,2013-09-13 11:18:00,
2013-09-13 06:33:00,71.1,70.0,29.91,WNW,284,0.0,1.0,95,0.00,,,0.00,weatherlink.com 1.10,2013-09-13 11:33:00,
2013-09-13 06:48:00,70.5,69.0,29.91,WNW,284,0.0,0.0,95,0.00,,,0.00,weatherlink.com 1.10,2013-09-13 11:48:00,
2013-09-13 07:03:00,70.3,69.0,29.91,WNW,284,0.0,0.0,95,0.00,,,0.00,weatherlink.com 1.10,2013-09-13 12:03:00,
2013-09-13 07:18:00,70.1,69.0,29.91,WNW,284,0.0,0.0,95,0.00,,,0.00,weatherlink.com 1.10,2013-09-13 12:18:00,
2013-09-13 07:33:00,70.7,70.0,29.91,WNW,284,0.0,0.0,96,0.00,,,0.00,weatherlink.com 1.10,2013-09-13 12:33:00,
2013-09-13 07:48:00,71.7,71.0,29.91,WNW,284,0.0,0.0,96,0.00,,,0.00,weatherlink.com 1.10,2013-09-13 12:48:00,
2013-09-13 08:03:00,72.9,71.0,29.91,WNW,284,0.0,1.0,95,0.00,,,0.00,weatherlink.com 1.10,2013-09-13 13:03:00,
2013-09-13 08:18:00,73.7,72.0,29.91,ENE,57,2.0,3.0,94,0.00,,,0.00,weatherlink.com 1.10,2013-09-13 13:18:00,
2013-09-13 08:33:00,75.1,72.0,29.91,NE,56,2.0,3.0,91,0.00,,,0.00,weatherlink.com 1.10,2013-09-13 13:33:00,
2013-09-13 08:48:00,76.6,72.0,29.91,ENE,67,4.0,4.0,86,0.00,,,0.00,weatherlink.com 1.10,2013-09-13 13:48:00,
2013-09-13 09:03:00,77.5,73.0,29.91,NE,47,3.0,7.0,85,0.00,,,0.00,weatherlink.com 1.10,2013-09-13 14:03:00,
2013-09-13 09:18:00,79.0,74.0,29.91,NE,49,2.0,4.0,83,0.00,,,0.00,weatherlink.com 1.10,2013-09-13 14:18:00,
2013-09-13 09:33:00,80.2,72.0,29.91,ENE,60,3.0,6.0,77,0.00,,,0.00,weatherlink.com 1.10,2013-09-13 14:33:00,
2013-09-13 09:49:00,81.2,72.0,29.92,ENE,58,4.0,8.0,74,0.00,,,0.00,weatherlink.com 1.10,2013-09-13 14:49:00,
2013-09-13 10:04:00,82.5,72.0,29.92,ENE,58,5.0,7.0,70,0.00,,,0.00,weatherlink.com 1.10,2013-09-13 15:04:00,
2013-09-13 10:19:00,82.9,70.0,29.92,ENE,72,4.0,7.0,65,0.00,,,0.00,weatherlink.com 1.10,2013-09-13 15:19:00,
2013-09-13 10:34:00,83.7,71.0,29.93,ENE,72,3.0,7.0,66,0.00,,,0.00,weatherlink.com 1.10,2013-09-13 15:34:00,
2013-09-13 10:49:00,84.3,70.0,29.92,ENE,70,7.0,9.0,63,0.00,,,0.00,weatherlink.com 1.10,2013-09-13 15:49:00,
2013-09-13 11:04:00,85.1,70.0,29.92,ENE,63,5.0,10.0,60,0.00,,,0.00,weatherlink.com 1.10,2013-09-13 16:04:00,
2013-09-13 11:19:00,85.6,70.0,29.91,ENE,57,5.0,9.0,59,0.00,,,0.00,weatherlink.com 1.10,2013-09-13 16:19:00,
2013-09-13 11:34:00,86.5,69.0,29.91,ENE,69,8.0,9.0,56,0.00,,,0.00,weatherlink.com 1.10,2013-09-13 16:34:00,
2013-09-13 11:49:00,87.7,68.0,29.90,NE,51,6.0,10.0,52,0.00,,,0.00,weatherlink.com 1.10,2013-09-13 16:49:00,
2013-09-13 12:04:00,88.6,66.0,29.90,East,85,5.0,13.0,47,0.00,,,0.00,weatherlink.com 1.10,2013-09-13 17:04:00,
2013-09-13 12:19:00,89.3,66.0,29.89,East,79,7.0,12.0,46,0.00,,,0.00,weatherlink.com 1.10,2013-09-13 17:19:00,
2013-09-13 12:34:00,90.5,66.0,29.89,East,85,16.0,16.0,44,0.00,,,0.00,weatherlink.com 1.10,2013-09-13 17:34:00,
2013-09-13 12:49:00,91.1,66.0,29.88,East,82,9.0,15.0,43,0.00,,,0.00,weatherlink.com 1.10,2013-09-13 17:49:00,
2013-09-13 13:04:00,91.2,64.0,29.87,ENE,70,9.0,19.0,40,0.00,,,0.00,weatherlink.com 1.10,2013-09-13 18:04:00,
2013-09-13 13:19:00,91.4,64.0,29.87,East,89,8.0,15.0,40,0.00,,,0.00,weatherlink.com 1.10,2013-09-13 18:19:00,
2013-09-13 13:34:00,92.3,63.0,29.86,East,98,9.0,17.0,38,0.00,,,0.00,weatherlink.com 1.10,2013-09-13 18:34:00,
2013-09-13 13:49:00,92.7,64.0,29.85,East,86,9.0,12.0,38,0.00,,,0.00,weatherlink.com 1.10,2013-09-13 18:49:00,
2013-09-13 14:04:00,92.3,62.0,29.85,ESE,107,7.0,12.0,37,0.00,,,0.00,weatherlink.com 1.10,2013-09-13 19:04:00,
2013-09-13 14:19:00,91.2,60.0,29.84,East,82,8.0,13.0,35,0.00,,,0.00,weatherlink.com 1.10,2013-09-13 19:19:00,
2013-09-13 14:34:00,91.9,62.0,29.84,East,86,9.0,16.0,37,0.00,,,0.00,weatherlink.com 1.10,2013-09-13 19:34:00,
2013-09-13 14:49:00,92.9,60.0,29.83,ENE,78,11.0,13.0,33,0.00,,,0.00,weatherlink.com 1.10,2013-09-13 19:49:00,
2013-09-13 15:05:00,93.7,63.0,29.82,ENE,75,8.0,11.0,36,0.00,,,0.00,weatherlink.com 1.10,2013-09-13 20:05:00,
2013-09-13 15:20:00,93.7,63.0,29.81,SE,136,6.0,11.0,36,0.00,,,0.00,weatherlink.com 1.10,2013-09-13 20:20:00,
2013-09-13 15:35:00,94.0,62.0,29.81,East,101,6.0,15.0,35,0.00,,,0.00,weatherlink.com 1.10,2013-09-13 20:35:00,
2013-09-13 15:50:00,93.2,62.0,29.80,East,89,9.0,15.0,35,0.00,,,0.00,weatherlink.com 1.10,2013-09-13 20:50:00,
2013-09-13 16:05:00,93.8,61.0,29.80,ESE,110,6.0,13.0,34,0.00,,,0.00,weatherlink.com 1.10,2013-09-13 21:05:00,
2013-09-13 16:20:00,93.7,62.0,29.79,East,94,4.0,12.0,35,0.00,,,0.00,weatherlink.com 1.10,2013-09-13 21:20:00,
2013-09-13 16:35:00,93.6,63.0,29.79,ENE,78,5.0,11.0,36,0.00,,,0.00,weatherlink.com 1.10,2013-09-13 21:35:00,
2013-09-13 16:50:00,93.6,62.0,29.79,ESE,104,3.0,12.0,35,0.00,,,0.00,weatherlink.com 1.10,2013-09-13 21:50:00,
2013-09-13 17:05:00,93.7,63.0,29.79,East,100,6.0,12.0,36,0.00,,,0.00,weatherlink.com 1.10,2013-09-13 22:05:00,
2013-09-13 17:20:00,93.8,64.0,29.78,East,89,8.0,10.0,37,0.00,,,0.00,weatherlink.com 1.10,2013-09-13 22:20:00,
2013-09-13 17:35:00,93.7,63.0,29.78,ENE,75,8.0,12.0,36,0.00,,,0.00,weatherlink.com 1.10,2013-09-13 22:35:00,
2013-09-13 17:50:00,93.5,64.0,29.77,ESE,113,4.0,9.0,37,0.00,,,0.00,weatherlink.com 1.10,2013-09-13 22:50:00,
2013-09-13 18:05:00,93.4,63.0,29.78,East,98,7.0,10.0,37,0.00,,,0.00,weatherlink.com 1.10,2013-09-13 23:05:00,
2013-09-13 18:20:00,92.9,62.0,29.78,SE,126,2.0,8.0,36,0.00,,,0.00,weatherlink.com 1.10,2013-09-13 23:20:00,
2013-09-13 18:35:00,92.7,62.0,29.78,East,92,6.0,8.0,36,0.00,,,0.00,weatherlink.com 1.10,2013-09-13 23:35:00,
2013-09-13 18:50:00,92.1,62.0,29.78,East,85,6.0,10.0,37,0.00,,,0.00,weatherlink.com 1.10,2013-09-13 23:50:00,
2013-09-13 19:05:00,91.6,63.0,29.78,SE,130,3.0,9.0,38,0.00,,,0.00,weatherlink.com 1.10,2013-09-14 00:05:00,
2013-09-13 19:20:00,90.7,64.0,29.78,SSE,153,0.0,6.0,41,0.00,,,0.00,weatherlink.com 1.10,2013-09-14 00:20:00,
2013-09-13 19:35:00,89.0,64.0,29.79,SE,136,0.0,5.0,44,0.00,,,0.00,weatherlink.com 1.10,2013-09-14 00:35:00,
2013-09-13 19:50:00,87.5,64.0,29.79,SE,142,0.0,2.0,46,0.00,,,0.00,weatherlink.com 1.10,2013-09-14 00:50:00,
2013-09-13 20:05:00,86.3,64.0,29.79,SE,140,0.0,0.0,48,0.00,,,0.00,weatherlink.com 1.10,2013-09-14 01:05:00,
2013-09-13 20:20:00,85.3,65.0,29.79,SE,138,0.0,1.0,51,0.00,,,0.00,weatherlink.com 1.10,2013-09-14 01:20:00,
2013-09-13 20:35:00,84.5,65.0,29.79,SE,143,0.0,1.0,52,0.00,,,0.00,weatherlink.com 1.10,2013-09-14 01:35:00,
2013-09-13 20:50:00,84.1,65.0,29.80,SE,143,3.0,3.0,53,0.00,,,0.00,weatherlink.com 1.10,2013-09-14 01:50:00,
2013-09-13 21:05:00,83.9,65.0,29.81,SSE,163,4.0,4.0,53,0.00,,,0.00,weatherlink.com 1.10,2013-09-14 02:05:00,
2013-09-13 21:20:00,84.1,66.0,29.81,SSE,154,4.0,5.0,55,0.00,,,0.00,weatherlink.com 1.10,2013-09-14 02:20:00,
2013-09-13 21:35:00,83.7,67.0,29.82,SSE,150,2.0,8.0,58,0.00,,,0.00,weatherlink.com 1.10,2013-09-14 02:35:00,
2013-09-13 21:50:00,82.8,68.0,29.83,SE,128,2.0,4.0,61,0.00,,,0.00,weatherlink.com 1.10,2013-09-14 02:50:00,
2013-09-13 22:05:00,82.1,69.0,29.83,SSE,157,1.0,5.0,64,0.00,,,0.00,weatherlink.com 1.10,2013-09-14 03:05:00,
2013-09-13 22:20:00,81.7,69.0,29.84,SSE,149,4.0,5.0,66,0.00,,,0.00,weatherlink.com 1.10,2013-09-14 03:20:00,
2013-09-13 22:35:00,81.6,69.0,29.84,SE,125,3.0,7.0,66,0.00,,,0.00,weatherlink.com 1.10,2013-09-14 03:35:00,
2013-09-13 22:50:00,81.3,68.0,29.84,SE,134,3.0,6.0,65,0.00,,,0.00,weatherlink.com 1.10,2013-09-14 03:50:00,
2013-09-13 23:05:00,80.8,68.0,29.84,SSE,153,1.0,5.0,65,0.00,,,0.00,weatherlink.com 1.10,2013-09-14 04:05:00,
2013-09-13 23:20:00,80.4,68.0,29.84,SSE,153,1.0,7.0,65,0.00,,,0.00,weatherlink.com 1.10,2013-09-14 04:20:00,
2013-09-13 23:35:00,79.9,68.0,29.84,ESE,103,2.0,6.0,66,0.00,,,0.00,weatherlink.com 1.10,2013-09-14 04:35:00,
2013-09-13 23:50:00,79.6,68.0,29.84,SSE,150,1.0,6.0,67,0.00,,,0.00,weatherlink.com 1.10,2013-09-14 04:50:00,